sensor_id;sensor_type;location;lat;lon;timestamp;temperature;humidity
21207;DHT22;10761;48.532;8.026;2022-11-11T00:00:32;6.90;99.90
21207;DHT22;10761;48.532;8.026;2022-11-11T00:02:58;6.90;99.90
21207;DHT22;10761;48.532;8.026;2022-11-11T00:05:25;7.00;99.90
21207;DHT22;10761;48.532;8.026;2022-11-11T00:07:55;6.90;99.90
21207;DHT22;10761;48.532;8.026;2022-11-11T00:10:27;6.80;99.90
21207;DHT22;10761;48.532;8.026;2022-11-11T00:12:53;6.60;99.90
21207;DHT22;10761;48.532;8.026;2022-11-11T00:15:19;6.40;99.90
21207;DHT22;10761;48.532;8.026;2022-11-11T00:17:44;6.30;99.90
21207;DHT22;10761;48.532;8.026;2022-11-11T00:20:29;6.20;99.90
21207;DHT22;10761;48.532;8.026;2022-11-11T00:23:26;6.20;99.90
21207;DHT22;10761;48.532;8.026;2022-11-11T00:26:13;6.30;99.90
21207;DHT22;10761;48.532;8.026;2022-11-11T00:28:39;6.50;99.90
21207;DHT22;10761;48.532;8.026;2022-11-11T00:31:10;6.50;99.90
21207;DHT22;10761;48.532;8.026;2022-11-11T00:33:36;6.60;99.90
21207;DHT22;10761;48.532;8.026;2022-11-11T00:36:02;6.70;99.90
21207;DHT22;10761;48.532;8.026;2022-11-11T00:38:28;6.60;99.90
21207;DHT22;10761;48.532;8.026;2022-11-11T00:41:17;6.50;99.90
21207;DHT22;10761;48.532;8.026;2022-11-11T00:43:44;6.40;99.90
21207;DHT22;10761;48.532;8.026;2022-11-11T00:46:10;6.40;99.90
21207;DHT22;10761;48.532;8.026;2022-11-11T00:48:55;6.30;99.90
21207;DHT22;10761;48.532;8.026;2022-11-11T00:51:40;6.30;99.90
21207;DHT22;10761;48.532;8.026;2022-11-11T00:54:06;6.20;99.90
21207;DHT22;10761;48.532;8.026;2022-11-11T00:56:32;6.20;99.90
21207;DHT22;10761;48.532;8.026;2022-11-11T00:58:58;6.10;99.90
21207;DHT22;10761;48.532;8.026;2022-11-11T01:01:23;6.10;99.90
21207;DHT22;10761;48.532;8.026;2022-11-11T01:03:49;6.00;99.90
21207;DHT22;10761;48.532;8.026;2022-11-11T01:06:15;6.00;99.90
21207;DHT22;10761;48.532;8.026;2022-11-11T01:08:40;5.90;99.90
21207;DHT22;10761;48.532;8.026;2022-11-11T01:11:18;5.90;99.90
21207;DHT22;10761;48.532;8.026;2022-11-11T01:13:45;5.90;99.90
21207;DHT22;10761;48.532;8.026;2022-11-11T01:16:16;5.90;99.90
21207;DHT22;10761;48.532;8.026;2022-11-11T01:18:42;5.90;99.90
21207;DHT22;10761;48.532;8.026;2022-11-11T01:21:20;5.80;99.90
21207;DHT22;10761;48.532;8.026;2022-11-11T01:23:47;5.80;99.90
21207;DHT22;10761;48.532;8.026;2022-11-11T01:28:40;5.70;99.90
21207;DHT22;10761;48.532;8.026;2022-11-11T01:31:08;5.80;99.90
21207;DHT22;10761;48.532;8.026;2022-11-11T01:33:34;5.80;99.90
21207;DHT22;10761;48.532;8.026;2022-11-11T01:36:14;5.80;99.90
21207;DHT22;10761;48.532;8.026;2022-11-11T01:38:40;5.80;99.90
21207;DHT22;10761;48.532;8.026;2022-11-11T01:41:14;5.80;99.90
21207;DHT22;10761;48.532;8.026;2022-11-11T01:44:45;5.90;99.90
21207;DHT22;10761;48.532;8.026;2022-11-11T01:46:56;5.80;99.90
21207;DHT22;10761;48.532;8.026;2022-11-11T01:52:18;5.80;99.90
21207;DHT22;10761;48.532;8.026;2022-11-11T01:54:51;5.90;99.90
21207;DHT22;10761;48.532;8.026;2022-11-11T02:00:05;5.90;99.90
21207;DHT22;10761;48.532;8.026;2022-11-11T02:02:42;5.90;99.90
21207;DHT22;10761;48.532;8.026;2022-11-11T02:05:12;5.80;99.90
21207;DHT22;10761;48.532;8.026;2022-11-11T02:07:58;5.80;99.90
21207;DHT22;10761;48.532;8.026;2022-11-11T02:10:26;5.80;99.90
21207;DHT22;10761;48.532;8.026;2022-11-11T02:12:52;5.70;99.90
21207;DHT22;10761;48.532;8.026;2022-11-11T02:15:37;5.80;99.90
21207;DHT22;10761;48.532;8.026;2022-11-11T02:18:04;5.80;99.90
21207;DHT22;10761;48.532;8.026;2022-11-11T02:20:37;5.80;99.90
21207;DHT22;10761;48.532;8.026;2022-11-11T02:25:43;5.90;99.90
21207;DHT22;10761;48.532;8.026;2022-11-11T02:28:11;6.00;99.90
21207;DHT22;10761;48.532;8.026;2022-11-11T02:30:37;6.00;99.90
21207;DHT22;10761;48.532;8.026;2022-11-11T02:33:03;6.00;99.90
21207;DHT22;10761;48.532;8.026;2022-11-11T02:35:34;6.00;99.90
21207;DHT22;10761;48.532;8.026;2022-11-11T02:38:02;5.90;99.90
21207;DHT22;10761;48.532;8.026;2022-11-11T02:40:36;5.80;99.90
21207;DHT22;10761;48.532;8.026;2022-11-11T02:43:03;5.70;99.90
21207;DHT22;10761;48.532;8.026;2022-11-11T02:45:29;5.60;99.90
21207;DHT22;10761;48.532;8.026;2022-11-11T02:47:54;5.60;99.90
21207;DHT22;10761;48.532;8.026;2022-11-11T02:50:20;5.60;99.90
21207;DHT22;10761;48.532;8.026;2022-11-11T02:52:46;5.50;99.90
21207;DHT22;10761;48.532;8.026;2022-11-11T02:55:11;5.50;99.90
21207;DHT22;10761;48.532;8.026;2022-11-11T02:57:37;5.50;99.90
21207;DHT22;10761;48.532;8.026;2022-11-11T03:00:04;5.50;99.90
21207;DHT22;10761;48.532;8.026;2022-11-11T03:02:30;5.50;99.90
21207;DHT22;10761;48.532;8.026;2022-11-11T03:04:56;5.50;99.90
21207;DHT22;10761;48.532;8.026;2022-11-11T03:07:23;5.50;99.90
21207;DHT22;10761;48.532;8.026;2022-11-11T03:09:49;5.50;99.90
21207;DHT22;10761;48.532;8.026;2022-11-11T03:12:15;5.50;99.90
21207;DHT22;10761;48.532;8.026;2022-11-11T03:14:41;5.50;99.90
21207;DHT22;10761;48.532;8.026;2022-11-11T03:17:07;5.40;99.90
21207;DHT22;10761;48.532;8.026;2022-11-11T03:19:51;5.40;99.90
21207;DHT22;10761;48.532;8.026;2022-11-11T03:22:17;5.40;99.90
21207;DHT22;10761;48.532;8.026;2022-11-11T03:24:43;5.40;99.90
21207;DHT22;10761;48.532;8.026;2022-11-11T03:27:27;5.30;99.90
21207;DHT22;10761;48.532;8.026;2022-11-11T03:29:52;5.30;99.90
21207;DHT22;10761;48.532;8.026;2022-11-11T03:32:18;5.30;99.90
21207;DHT22;10761;48.532;8.026;2022-11-11T03:34:43;5.30;99.90
21207;DHT22;10761;48.532;8.026;2022-11-11T03:37:10;5.30;99.90
21207;DHT22;10761;48.532;8.026;2022-11-11T03:39:55;5.30;99.90
21207;DHT22;10761;48.532;8.026;2022-11-11T03:42:21;5.30;99.90
21207;DHT22;10761;48.532;8.026;2022-11-11T03:44:46;5.40;99.90
21207;DHT22;10761;48.532;8.026;2022-11-11T03:47:12;5.40;99.90
21207;DHT22;10761;48.532;8.026;2022-11-11T03:49:41;5.40;99.90
21207;DHT22;10761;48.532;8.026;2022-11-11T03:52:06;5.40;99.90
21207;DHT22;10761;48.532;8.026;2022-11-11T03:54:32;5.50;99.90
21207;DHT22;10761;48.532;8.026;2022-11-11T03:56:58;5.60;99.90
21207;DHT22;10761;48.532;8.026;2022-11-11T03:59:42;5.60;99.90
21207;DHT22;10761;48.532;8.026;2022-11-11T04:02:11;5.60;99.90
21207;DHT22;10761;48.532;8.026;2022-11-11T04:04:56;5.60;99.90
21207;DHT22;10761;48.532;8.026;2022-11-11T04:07:40;5.60;99.90
21207;DHT22;10761;48.532;8.026;2022-11-11T04:10:24;5.60;99.90
21207;DHT22;10761;48.532;8.026;2022-11-11T04:12:50;5.60;99.90
21207;DHT22;10761;48.532;8.026;2022-11-11T04:15:36;5.60;99.90
21207;DHT22;10761;48.532;8.026;2022-11-11T04:18:20;5.50;99.90
21207;DHT22;10761;48.532;8.026;2022-11-11T04:21:07;5.40;99.90
21207;DHT22;10761;48.532;8.026;2022-11-11T04:23:51;5.40;99.90
21207;DHT22;10761;48.532;8.026;2022-11-11T04:26:16;5.30;99.90
21207;DHT22;10761;48.532;8.026;2022-11-11T04:28:42;5.30;99.90
21207;DHT22;10761;48.532;8.026;2022-11-11T04:31:26;5.30;99.90
21207;DHT22;10761;48.532;8.026;2022-11-11T04:33:52;5.40;99.90
21207;DHT22;10761;48.532;8.026;2022-11-11T04:36:17;5.40;99.90
21207;DHT22;10761;48.532;8.026;2022-11-11T04:38:43;5.50;99.90
21207;DHT22;10761;48.532;8.026;2022-11-11T04:41:27;5.50;99.90
21207;DHT22;10761;48.532;8.026;2022-11-11T04:43:53;5.50;99.90
21207;DHT22;10761;48.532;8.026;2022-11-11T04:46:37;5.50;99.90
21207;DHT22;10761;48.532;8.026;2022-11-11T04:49:02;5.50;99.90
21207;DHT22;10761;48.532;8.026;2022-11-11T04:51:28;5.50;99.90
21207;DHT22;10761;48.532;8.026;2022-11-11T04:54:13;5.50;99.90
21207;DHT22;10761;48.532;8.026;2022-11-11T04:56:39;5.40;99.90
21207;DHT22;10761;48.532;8.026;2022-11-11T04:59:17;5.40;99.90
21207;DHT22;10761;48.532;8.026;2022-11-11T05:01:45;5.20;99.90
21207;DHT22;10761;48.532;8.026;2022-11-11T05:04:30;5.10;99.90
21207;DHT22;10761;48.532;8.026;2022-11-11T05:06:55;5.00;99.90
21207;DHT22;10761;48.532;8.026;2022-11-11T05:09:39;4.90;99.90
21207;DHT22;10761;48.532;8.026;2022-11-11T05:12:05;4.90;99.90
21207;DHT22;10761;48.532;8.026;2022-11-11T05:14:31;4.90;99.90
21207;DHT22;10761;48.532;8.026;2022-11-11T05:17:15;4.90;99.90
21207;DHT22;10761;48.532;8.026;2022-11-11T05:19:59;4.90;99.90
21207;DHT22;10761;48.532;8.026;2022-11-11T05:22:44;4.90;99.90
21207;DHT22;10761;48.532;8.026;2022-11-11T05:25:10;4.90;99.90
21207;DHT22;10761;48.532;8.026;2022-11-11T05:27:54;4.90;99.90
21207;DHT22;10761;48.532;8.026;2022-11-11T05:30:21;4.80;99.90
21207;DHT22;10761;48.532;8.026;2022-11-11T05:32:47;4.80;99.90
21207;DHT22;10761;48.532;8.026;2022-11-11T05:35:13;4.70;99.90
21207;DHT22;10761;48.532;8.026;2022-11-11T05:37:40;4.70;99.90
21207;DHT22;10761;48.532;8.026;2022-11-11T05:40:06;4.60;99.90
21207;DHT22;10761;48.532;8.026;2022-11-11T05:42:32;4.60;99.90
21207;DHT22;10761;48.532;8.026;2022-11-11T05:44:58;4.60;99.90
21207;DHT22;10761;48.532;8.026;2022-11-11T05:47:23;4.50;99.90
21207;DHT22;10761;48.532;8.026;2022-11-11T05:49:49;4.50;99.90
21207;DHT22;10761;48.532;8.026;2022-11-11T05:52:16;4.40;99.90
21207;DHT22;10761;48.532;8.026;2022-11-11T05:54:42;4.30;99.90
21207;DHT22;10761;48.532;8.026;2022-11-11T05:57:08;4.20;99.90
21207;DHT22;10761;48.532;8.026;2022-11-11T05:59:34;4.20;99.90
21207;DHT22;10761;48.532;8.026;2022-11-11T06:01:59;4.10;99.90
21207;DHT22;10761;48.532;8.026;2022-11-11T06:04:25;4.10;99.90
21207;DHT22;10761;48.532;8.026;2022-11-11T06:06:51;4.10;99.90
21207;DHT22;10761;48.532;8.026;2022-11-11T06:09:17;4.10;99.90
21207;DHT22;10761;48.532;8.026;2022-11-11T06:11:42;4.00;99.90
21207;DHT22;10761;48.532;8.026;2022-11-11T06:14:08;4.00;99.90
21207;DHT22;10761;48.532;8.026;2022-11-11T06:16:34;4.00;99.90
21207;DHT22;10761;48.532;8.026;2022-11-11T06:18:59;4.10;99.90
21207;DHT22;10761;48.532;8.026;2022-11-11T06:21:26;4.10;99.90
21207;DHT22;10761;48.532;8.026;2022-11-11T06:23:52;4.10;99.90
21207;DHT22;10761;48.532;8.026;2022-11-11T06:26:17;4.10;99.90
21207;DHT22;10761;48.532;8.026;2022-11-11T06:28:53;4.00;99.90
21207;DHT22;10761;48.532;8.026;2022-11-11T06:31:24;4.00;99.90
21207;DHT22;10761;48.532;8.026;2022-11-11T06:33:50;4.00;99.90
21207;DHT22;10761;48.532;8.026;2022-11-11T06:36:17;4.00;99.90
21207;DHT22;10761;48.532;8.026;2022-11-11T06:38:43;3.90;99.90
21207;DHT22;10761;48.532;8.026;2022-11-11T06:41:10;3.90;99.90
21207;DHT22;10761;48.532;8.026;2022-11-11T06:43:43;3.90;99.90
21207;DHT22;10761;48.532;8.026;2022-11-11T06:46:20;3.90;99.90
21207;DHT22;10761;48.532;8.026;2022-11-11T06:48:46;3.90;99.90
21207;DHT22;10761;48.532;8.026;2022-11-11T06:51:12;3.90;99.90
21207;DHT22;10761;48.532;8.026;2022-11-11T06:53:40;3.90;99.90
21207;DHT22;10761;48.532;8.026;2022-11-11T06:56:06;4.00;99.90
21207;DHT22;10761;48.532;8.026;2022-11-11T06:58:32;4.00;99.90
21207;DHT22;10761;48.532;8.026;2022-11-11T07:00:57;4.10;99.90
21207;DHT22;10761;48.532;8.026;2022-11-11T07:03:23;4.20;99.90
21207;DHT22;10761;48.532;8.026;2022-11-11T07:05:49;4.20;99.90
21207;DHT22;10761;48.532;8.026;2022-11-11T07:08:16;4.10;99.90
21207;DHT22;10761;48.532;8.026;2022-11-11T07:10:45;4.00;99.90
21207;DHT22;10761;48.532;8.026;2022-11-11T07:13:11;4.00;99.90
21207;DHT22;10761;48.532;8.026;2022-11-11T07:15:37;4.10;99.90
21207;DHT22;10761;48.532;8.026;2022-11-11T07:18:03;4.10;99.90
21207;DHT22;10761;48.532;8.026;2022-11-11T07:20:29;4.20;99.90
21207;DHT22;10761;48.532;8.026;2022-11-11T07:22:55;4.30;99.90
21207;DHT22;10761;48.532;8.026;2022-11-11T07:25:20;4.40;99.90
21207;DHT22;10761;48.532;8.026;2022-11-11T07:27:46;4.50;99.90
21207;DHT22;10761;48.532;8.026;2022-11-11T07:30:12;4.50;99.90
21207;DHT22;10761;48.532;8.026;2022-11-11T07:32:48;4.60;99.90
21207;DHT22;10761;48.532;8.026;2022-11-11T07:35:15;4.70;99.90
21207;DHT22;10761;48.532;8.026;2022-11-11T07:37:41;4.80;99.90
21207;DHT22;10761;48.532;8.026;2022-11-11T07:40:08;5.00;99.90
21207;DHT22;10761;48.532;8.026;2022-11-11T07:42:36;5.00;99.90
21207;DHT22;10761;48.532;8.026;2022-11-11T07:45:02;5.20;99.90
21207;DHT22;10761;48.532;8.026;2022-11-11T07:47:28;5.20;99.90
21207;DHT22;10761;48.532;8.026;2022-11-11T07:49:54;5.20;99.90
21207;DHT22;10761;48.532;8.026;2022-11-11T07:52:19;5.30;99.90
21207;DHT22;10761;48.532;8.026;2022-11-11T07:54:48;5.40;99.90
21207;DHT22;10761;48.532;8.026;2022-11-11T07:57:14;5.60;99.90
21207;DHT22;10761;48.532;8.026;2022-11-11T07:59:39;5.70;99.90
21207;DHT22;10761;48.532;8.026;2022-11-11T08:02:09;5.80;99.90
21207;DHT22;10761;48.532;8.026;2022-11-11T08:04:35;5.90;99.90
21207;DHT22;10761;48.532;8.026;2022-11-11T08:07:00;6.20;99.90
21207;DHT22;10761;48.532;8.026;2022-11-11T08:09:26;6.30;99.90
21207;DHT22;10761;48.532;8.026;2022-11-11T08:11:52;6.50;99.90
21207;DHT22;10761;48.532;8.026;2022-11-11T08:14:36;6.70;99.90
21207;DHT22;10761;48.532;8.026;2022-11-11T08:17:01;6.90;99.90
21207;DHT22;10761;48.532;8.026;2022-11-11T08:19:27;7.10;99.90
21207;DHT22;10761;48.532;8.026;2022-11-11T08:21:52;7.30;99.90
21207;DHT22;10761;48.532;8.026;2022-11-11T08:24:18;7.60;99.90
21207;DHT22;10761;48.532;8.026;2022-11-11T08:26:44;7.80;99.90
21207;DHT22;10761;48.532;8.026;2022-11-11T08:29:10;8.10;99.90
21207;DHT22;10761;48.532;8.026;2022-11-11T08:31:35;8.30;99.90
21207;DHT22;10761;48.532;8.026;2022-11-11T08:34:03;8.30;99.90
21207;DHT22;10761;48.532;8.026;2022-11-11T08:36:29;8.20;99.90
21207;DHT22;10761;48.532;8.026;2022-11-11T08:38:55;8.40;99.90
21207;DHT22;10761;48.532;8.026;2022-11-11T08:41:21;8.70;99.90
21207;DHT22;10761;48.532;8.026;2022-11-11T08:43:53;8.90;99.90
21207;DHT22;10761;48.532;8.026;2022-11-11T08:46:20;9.10;99.90
21207;DHT22;10761;48.532;8.026;2022-11-11T08:48:46;9.40;99.90
21207;DHT22;10761;48.532;8.026;2022-11-11T08:51:13;9.70;99.90
21207;DHT22;10761;48.532;8.026;2022-11-11T08:53:39;9.80;99.90
21207;DHT22;10761;48.532;8.026;2022-11-11T08:56:05;9.90;99.90
21207;DHT22;10761;48.532;8.026;2022-11-11T08:58:32;10.00;99.90
21207;DHT22;10761;48.532;8.026;2022-11-11T09:00:57;10.10;99.90
21207;DHT22;10761;48.532;8.026;2022-11-11T09:03:23;10.10;99.90
21207;DHT22;10761;48.532;8.026;2022-11-11T09:05:49;10.30;99.90
21207;DHT22;10761;48.532;8.026;2022-11-11T09:08:15;10.60;99.90
21207;DHT22;10761;48.532;8.026;2022-11-11T09:10:40;11.00;99.90
21207;DHT22;10761;48.532;8.026;2022-11-11T09:13:06;11.40;99.90
21207;DHT22;10761;48.532;8.026;2022-11-11T09:15:32;11.60;99.90
21207;DHT22;10761;48.532;8.026;2022-11-11T09:17:58;11.80;99.90
21207;DHT22;10761;48.532;8.026;2022-11-11T09:20:24;11.80;99.90
21207;DHT22;10761;48.532;8.026;2022-11-11T09:22:50;11.70;99.90
21207;DHT22;10761;48.532;8.026;2022-11-11T09:25:17;11.80;99.90
21207;DHT22;10761;48.532;8.026;2022-11-11T09:27:43;11.90;99.90
21207;DHT22;10761;48.532;8.026;2022-11-11T09:30:09;11.90;99.90
21207;DHT22;10761;48.532;8.026;2022-11-11T09:32:36;11.60;99.90
21207;DHT22;10761;48.532;8.026;2022-11-11T09:35:03;11.40;99.90
21207;DHT22;10761;48.532;8.026;2022-11-11T09:37:29;11.00;99.90
21207;DHT22;10761;48.532;8.026;2022-11-11T09:39:54;11.10;99.90
21207;DHT22;10761;48.532;8.026;2022-11-11T09:42:34;11.40;99.90
21207;DHT22;10761;48.532;8.026;2022-11-11T09:50:21;11.10;99.90
21207;DHT22;10761;48.532;8.026;2022-11-11T09:53:04;11.00;99.90
21207;DHT22;10761;48.532;8.026;2022-11-11T09:55:43;10.70;99.90
21207;DHT22;10761;48.532;8.026;2022-11-11T09:58:11;10.60;99.90
21207;DHT22;10761;48.532;8.026;2022-11-11T10:00:42;10.40;99.90
21207;DHT22;10761;48.532;8.026;2022-11-11T10:05:47;10.00;99.90
21207;DHT22;10761;48.532;8.026;2022-11-11T10:08:17;9.80;99.90
21207;DHT22;10761;48.532;8.026;2022-11-11T10:10:48;9.60;99.90
21207;DHT22;10761;48.532;8.026;2022-11-11T10:13:28;9.50;99.90
21207;DHT22;10761;48.532;8.026;2022-11-11T10:16:01;9.70;99.90
21207;DHT22;10761;48.532;8.026;2022-11-11T10:20:57;9.60;99.90
21207;DHT22;10761;48.532;8.026;2022-11-11T10:23:34;9.70;99.90
21207;DHT22;10761;48.532;8.026;2022-11-11T10:26:10;10.10;99.90
21207;DHT22;10761;48.532;8.026;2022-11-11T10:28:42;10.30;99.90
21207;DHT22;10761;48.532;8.026;2022-11-11T10:31:18;10.40;99.90
21207;DHT22;10761;48.532;8.026;2022-11-11T10:34:04;10.20;99.90
21207;DHT22;10761;48.532;8.026;2022-11-11T10:36:43;10.10;99.90
21207;DHT22;10761;48.532;8.026;2022-11-11T10:39:13;10.40;99.90
21207;DHT22;10761;48.532;8.026;2022-11-11T10:41:46;10.50;99.90
21207;DHT22;10761;48.532;8.026;2022-11-11T10:44:21;10.60;99.90
21207;DHT22;10761;48.532;8.026;2022-11-11T10:47:00;10.90;99.90
21207;DHT22;10761;48.532;8.026;2022-11-11T10:49:36;11.30;99.90
21207;DHT22;10761;48.532;8.026;2022-11-11T10:52:21;11.70;99.90
21207;DHT22;10761;48.532;8.026;2022-11-11T10:54:58;12.30;99.90
21207;DHT22;10761;48.532;8.026;2022-11-11T10:57:33;12.90;99.90
21207;DHT22;10761;48.532;8.026;2022-11-11T11:00:05;13.80;99.90
21207;DHT22;10761;48.532;8.026;2022-11-11T11:05:12;15.10;99.90
21207;DHT22;10761;48.532;8.026;2022-11-11T11:07:44;15.80;99.90
21207;DHT22;10761;48.532;8.026;2022-11-11T11:13:22;15.80;99.90
21207;DHT22;10761;48.532;8.026;2022-11-11T11:15:57;15.70;99.90
21207;DHT22;10761;48.532;8.026;2022-11-11T11:18:24;16.10;99.90
21207;DHT22;10761;48.532;8.026;2022-11-11T11:21:05;16.40;99.90
21207;DHT22;10761;48.532;8.026;2022-11-11T11:23:39;16.20;99.90
21207;DHT22;10761;48.532;8.026;2022-11-11T11:26:07;16.00;99.90
21207;DHT22;10761;48.532;8.026;2022-11-11T11:28:33;16.10;99.90
21207;DHT22;10761;48.532;8.026;2022-11-11T11:31:01;15.70;99.90
21207;DHT22;10761;48.532;8.026;2022-11-11T11:33:27;15.60;99.90
21207;DHT22;10761;48.532;8.026;2022-11-11T11:36:16;15.00;99.90
21207;DHT22;10761;48.532;8.026;2022-11-11T11:38:44;14.40;99.90
21207;DHT22;10761;48.532;8.026;2022-11-11T11:41:16;14.50;99.90
21207;DHT22;10761;48.532;8.026;2022-11-11T11:43:42;14.80;99.90
21207;DHT22;10761;48.532;8.026;2022-11-11T11:49:00;15.60;99.90
21207;DHT22;10761;48.532;8.026;2022-11-11T11:56:43;15.80;99.90
21207;DHT22;10761;48.532;8.026;2022-11-11T12:02:01;15.80;99.90
21207;DHT22;10761;48.532;8.026;2022-11-11T12:07:41;15.70;99.90
21207;DHT22;10761;48.532;8.026;2022-11-11T12:12:56;16.30;99.90
21207;DHT22;10761;48.532;8.026;2022-11-11T12:15:36;16.20;99.90
21207;DHT22;10761;48.532;8.026;2022-11-11T12:26:27;17.30;99.90
21207;DHT22;10761;48.532;8.026;2022-11-11T12:35:30;17.10;99.90
21207;DHT22;10761;48.532;8.026;2022-11-11T12:37:43;16.90;99.90
21207;DHT22;10761;48.532;8.026;2022-11-11T12:43:33;16.50;99.90
21207;DHT22;10761;48.532;8.026;2022-11-11T12:46:04;16.50;99.90
21207;DHT22;10761;48.532;8.026;2022-11-11T12:48:59;16.70;99.90
21207;DHT22;10761;48.532;8.026;2022-11-11T12:51:32;16.60;99.90
21207;DHT22;10761;48.532;8.026;2022-11-11T12:56:54;15.50;99.90
21207;DHT22;10761;48.532;8.026;2022-11-11T13:05:26;14.10;99.90
21207;DHT22;10761;48.532;8.026;2022-11-11T13:15:39;13.60;99.90
21207;DHT22;10761;48.532;8.026;2022-11-11T13:18:26;13.60;99.90
21207;DHT22;10761;48.532;8.026;2022-11-11T13:20:57;13.90;99.90
21207;DHT22;10761;48.532;8.026;2022-11-11T13:23:24;14.10;99.90
21207;DHT22;10761;48.532;8.026;2022-11-11T13:25:54;14.00;99.90
21207;DHT22;10761;48.532;8.026;2022-11-11T13:28:31;14.50;99.90
21207;DHT22;10761;48.532;8.026;2022-11-11T13:31:18;14.70;99.90
21207;DHT22;10761;48.532;8.026;2022-11-11T13:33:50;14.40;99.90
21207;DHT22;10761;48.532;8.026;2022-11-11T13:36:20;14.10;99.90
21207;DHT22;10761;48.532;8.026;2022-11-11T13:38:58;14.10;99.90
21207;DHT22;10761;48.532;8.026;2022-11-11T13:41:28;14.40;99.90
21207;DHT22;10761;48.532;8.026;2022-11-11T13:43:57;14.70;99.90
21207;DHT22;10761;48.532;8.026;2022-11-11T13:48:53;14.80;99.90
21207;DHT22;10761;48.532;8.026;2022-11-11T13:51:29;14.50;99.90
21207;DHT22;10761;48.532;8.026;2022-11-11T13:53:57;13.80;99.90
21207;DHT22;10761;48.532;8.026;2022-11-11T13:59:26;13.00;99.90
21207;DHT22;10761;48.532;8.026;2022-11-11T14:02:12;12.70;99.90
21207;DHT22;10761;48.532;8.026;2022-11-11T14:15:50;12.40;99.90
21207;DHT22;10761;48.532;8.026;2022-11-11T14:20:49;11.80;99.90
21207;DHT22;10761;48.532;8.026;2022-11-11T14:23:37;11.40;99.90
21207;DHT22;10761;48.532;8.026;2022-11-11T14:28:33;11.10;99.90
21207;DHT22;10761;48.532;8.026;2022-11-11T14:39:38;10.80;99.90
21207;DHT22;10761;48.532;8.026;2022-11-11T14:45:01;10.70;99.90
21207;DHT22;10761;48.532;8.026;2022-11-11T14:47:33;10.60;99.90
21207;DHT22;10761;48.532;8.026;2022-11-11T14:49:59;10.40;99.90
21207;DHT22;10761;48.532;8.026;2022-11-11T14:52:36;10.30;99.90
21207;DHT22;10761;48.532;8.026;2022-11-11T14:55:17;10.40;99.90
21207;DHT22;10761;48.532;8.026;2022-11-11T14:58:04;10.30;99.90
21207;DHT22;10761;48.532;8.026;2022-11-11T15:11:50;9.70;99.90
21207;DHT22;10761;48.532;8.026;2022-11-11T15:14:34;9.80;99.90
21207;DHT22;10761;48.532;8.026;2022-11-11T15:22:41;9.40;99.90
21207;DHT22;10761;48.532;8.026;2022-11-11T15:25:49;9.40;99.90
21207;DHT22;10761;48.532;8.026;2022-11-11T15:37:02;9.30;99.90
21207;DHT22;10761;48.532;8.026;2022-11-11T15:39:57;9.20;99.90
21207;DHT22;10761;48.532;8.026;2022-11-11T15:44:51;9.10;99.90
21207;DHT22;10761;48.532;8.026;2022-11-11T15:47:18;9.00;99.90
21207;DHT22;10761;48.532;8.026;2022-11-11T15:49:46;8.90;99.90
21207;DHT22;10761;48.532;8.026;2022-11-11T15:54:52;8.80;99.90
21207;DHT22;10761;48.532;8.026;2022-11-11T15:57:27;8.80;99.90
21207;DHT22;10761;48.532;8.026;2022-11-11T15:59:55;8.70;99.90
21207;DHT22;10761;48.532;8.026;2022-11-11T16:02:33;8.70;99.90
21207;DHT22;10761;48.532;8.026;2022-11-11T16:05:23;8.70;99.90
21207;DHT22;10761;48.532;8.026;2022-11-11T16:07:51;8.70;99.90
21207;DHT22;10761;48.532;8.026;2022-11-11T16:10:35;8.60;99.90
21207;DHT22;10761;48.532;8.026;2022-11-11T16:13:06;8.70;99.90
21207;DHT22;10761;48.532;8.026;2022-11-11T16:16:02;8.70;99.90
21207;DHT22;10761;48.532;8.026;2022-11-11T16:18:43;8.80;99.90
21207;DHT22;10761;48.532;8.026;2022-11-11T16:21:15;8.80;99.90
21207;DHT22;10761;48.532;8.026;2022-11-11T16:23:42;8.80;99.90
21207;DHT22;10761;48.532;8.026;2022-11-11T16:26:08;8.80;99.90
21207;DHT22;10761;48.532;8.026;2022-11-11T16:28:46;8.80;99.90
21207;DHT22;10761;48.532;8.026;2022-11-11T16:33:59;8.70;99.90
21207;DHT22;10761;48.532;8.026;2022-11-11T16:36:25;8.70;99.90
21207;DHT22;10761;48.532;8.026;2022-11-11T16:38:51;8.60;99.90
21207;DHT22;10761;48.532;8.026;2022-11-11T16:41:28;8.60;99.90
21207;DHT22;10761;48.532;8.026;2022-11-11T16:43:55;8.70;99.90
21207;DHT22;10761;48.532;8.026;2022-11-11T16:49:15;8.70;99.90
21207;DHT22;10761;48.532;8.026;2022-11-11T16:51:45;8.70;99.90
21207;DHT22;10761;48.532;8.026;2022-11-11T16:54:16;8.70;99.90
21207;DHT22;10761;48.532;8.026;2022-11-11T16:56:52;8.70;99.90
21207;DHT22;10761;48.532;8.026;2022-11-11T17:01:51;8.70;99.90
21207;DHT22;10761;48.532;8.026;2022-11-11T17:04:16;8.70;99.90
21207;DHT22;10761;48.532;8.026;2022-11-11T17:06:56;8.70;99.90
21207;DHT22;10761;48.532;8.026;2022-11-11T17:11:59;8.60;99.90
21207;DHT22;10761;48.532;8.026;2022-11-11T17:14:26;8.60;99.90
21207;DHT22;10761;48.532;8.026;2022-11-11T17:16:52;8.60;99.90
21207;DHT22;10761;48.532;8.026;2022-11-11T17:19:17;8.50;99.90
21207;DHT22;10761;48.532;8.026;2022-11-11T17:21:43;8.50;99.90
21207;DHT22;10761;48.532;8.026;2022-11-11T17:24:09;8.50;99.90
21207;DHT22;10761;48.532;8.026;2022-11-11T17:26:34;8.50;99.90
21207;DHT22;10761;48.532;8.026;2022-11-11T17:29:00;8.50;99.90
21207;DHT22;10761;48.532;8.026;2022-11-11T17:31:26;8.60;99.90
21207;DHT22;10761;48.532;8.026;2022-11-11T17:33:51;8.60;99.90
21207;DHT22;10761;48.532;8.026;2022-11-11T17:36:17;8.60;99.90
21207;DHT22;10761;48.532;8.026;2022-11-11T17:38:43;8.60;99.90
21207;DHT22;10761;48.532;8.026;2022-11-11T17:41:12;8.60;99.90
21207;DHT22;10761;48.532;8.026;2022-11-11T17:43:38;8.70;99.90
21207;DHT22;10761;48.532;8.026;2022-11-11T17:46:04;8.70;99.90
21207;DHT22;10761;48.532;8.026;2022-11-11T17:48:30;8.70;99.90
21207;DHT22;10761;48.532;8.026;2022-11-11T17:50:56;8.60;99.90
21207;DHT22;10761;48.532;8.026;2022-11-11T17:53:21;8.60;99.90
21207;DHT22;10761;48.532;8.026;2022-11-11T17:55:47;8.70;99.90
21207;DHT22;10761;48.532;8.026;2022-11-11T17:58:13;8.70;99.90
21207;DHT22;10761;48.532;8.026;2022-11-11T18:00:38;8.70;99.90
21207;DHT22;10761;48.532;8.026;2022-11-11T18:03:05;8.60;99.90
21207;DHT22;10761;48.532;8.026;2022-11-11T18:05:34;8.60;99.90
21207;DHT22;10761;48.532;8.026;2022-11-11T18:08:00;8.60;99.90
21207;DHT22;10761;48.532;8.026;2022-11-11T18:10:26;8.60;99.90
21207;DHT22;10761;48.532;8.026;2022-11-11T18:12:52;8.60;99.90
21207;DHT22;10761;48.532;8.026;2022-11-11T18:15:17;8.60;99.90
21207;DHT22;10761;48.532;8.026;2022-11-11T18:17:44;8.70;99.90
21207;DHT22;10761;48.532;8.026;2022-11-11T18:20:10;8.70;99.90
21207;DHT22;10761;48.532;8.026;2022-11-11T18:22:35;8.60;99.90
21207;DHT22;10761;48.532;8.026;2022-11-11T18:25:01;8.60;99.90
21207;DHT22;10761;48.532;8.026;2022-11-11T18:27:26;8.50;99.90
21207;DHT22;10761;48.532;8.026;2022-11-11T18:29:52;8.50;99.90
21207;DHT22;10761;48.532;8.026;2022-11-11T18:32:17;8.50;99.90
21207;DHT22;10761;48.532;8.026;2022-11-11T18:34:43;8.50;99.90